Time;durP1;ratioP1;P1;durP2;ratioP2;P2;SDS_P1;SDS_P2;PMS_P1;PMS_P2;Temp;Humidity;BMP_temperature;BMP_pressure;BME280_temperature;BME280_humidity;BME280_pressure;Samples;Min_cycle;Max_cycle;Signal;HPM_P1;HPM_P2
2021/01/12 00:00:34;;;;;;;3.95;3.45;;;9.50;99.90;;;;;;4950903;29;20213;-35
2021/01/12 00:03:04;;;;;;;3.92;3.50;;;9.50;99.90;;;;;;4951307;29;20194;-32
2021/01/12 00:05:35;;;;;;;5.43;4.43;;;9.50;99.90;;;;;;4951559;29;20255;-31
2021/01/12 00:08:07;;;;;;;4.45;3.88;;;9.50;99.90;;;;;;4951387;29;20261;-30
2021/01/12 00:10:38;;;;;;;4.28;3.83;;;9.60;99.90;;;;;;4951452;29;20225;-32
2021/01/12 00:13:08;;;;;;;3.90;3.60;;;9.60;99.90;;;;;;4951207;29;20253;-31
2021/01/12 00:15:40;;;;;;;4.50;4.10;;;9.50;99.90;;;;;;4951243;29;20202;-30
2021/01/12 00:18:10;;;;;;;5.18;3.67;;;9.50;99.90;;;;;;4951475;29;20292;-33
2021/01/12 00:20:40;;;;;;;3.47;3.17;;;9.50;99.90;;;;;;4951634;29;20638;-34
2021/01/12 00:23:10;;;;;;;3.45;3.15;;;9.50;99.90;;;;;;4951222;29;20214;-31
2021/01/12 00:25:40;;;;;;;3.63;3.30;;;9.50;99.90;;;;;;4951542;28;20224;-34
2021/01/12 00:28:10;;;;;;;3.40;3.10;;;9.60;99.90;;;;;;4954839;29;20246;-33
2021/01/12 00:30:41;;;;;;;4.32;3.42;;;9.60;99.90;;;;;;4954556;29;20417;-34
2021/01/12 00:33:11;;;;;;;3.80;3.22;;;9.60;99.90;;;;;;4955039;29;20194;-30
2021/01/12 00:35:42;;;;;;;3.72;3.42;;;9.50;99.90;;;;;;4955222;29;20240;-32
2021/01/12 00:38:12;;;;;;;4.32;3.92;;;9.60;99.90;;;;;;4955080;29;20191;-30
2021/01/12 00:40:42;;;;;;;5.45;3.42;;;9.60;99.90;;;;;;4942680;29;20230;-34
2021/01/12 00:43:12;;;;;;;3.80;3.40;;;9.70;99.90;;;;;;4935483;29;20202;-32
2021/01/12 00:45:44;;;;;;;6.65;4.20;;;9.70;99.90;;;;;;4935476;29;20211;-32
2021/01/12 00:48:14;;;;;;;3.72;3.40;;;9.80;99.90;;;;;;4935709;29;20202;-35
2021/01/12 00:50:45;;;;;;;4.80;3.90;;;9.80;99.90;;;;;;4935809;29;20277;-31
2021/01/12 00:53:15;;;;;;;4.03;3.65;;;9.80;99.90;;;;;;4935495;29;20195;-30
2021/01/12 00:55:46;;;;;;;4.68;3.42;;;9.70;99.90;;;;;;4935922;29;20238;-33
2021/01/12 00:58:16;;;;;;;5.45;3.80;;;9.60;99.90;;;;;;4935499;29;20199;-31
2021/01/12 01:00:47;;;;;;;4.05;3.70;;;9.50;99.90;;;;;;4935160;29;20209;-31
2021/01/12 01:03:17;;;;;;;3.95;3.50;;;9.60;99.90;;;;;;4935608;29;20210;-34
2021/01/12 01:05:47;;;;;;;3.67;3.38;;;9.60;99.90;;;;;;4935593;29;20535;-32
2021/01/12 01:08:17;;;;;;;6.13;3.90;;;9.60;99.90;;;;;;4935691;29;20219;-34
2021/01/12 01:10:47;;;;;;;4.45;3.90;;;9.50;99.90;;;;;;4935417;29;20243;-32
2021/01/12 01:13:17;;;;;;;6.28;4.35;;;9.50;99.90;;;;;;4935210;29;20211;-32
2021/01/12 01:15:49;;;;;;;4.65;4.00;;;9.50;99.90;;;;;;4934937;29;20210;-35
2021/01/12 01:18:19;;;;;;;4.90;4.40;;;9.60;99.90;;;;;;4935234;29;20672;-34
2021/01/12 01:20:50;;;;;;;4.93;3.90;;;9.60;99.90;;;;;;4935930;29;20258;-32
2021/01/12 01:23:20;;;;;;;4.22;3.92;;;9.70;99.90;;;;;;4935117;29;20205;-35
2021/01/12 01:25:54;;;;;;;4.85;4.43;;;9.60;99.90;;;;;;4934977;29;20587;-34
2021/01/12 01:28:25;;;;;;;4.20;3.80;;;9.50;99.90;;;;;;4935015;29;20264;-30
2021/01/12 01:30:56;;;;;;;5.03;4.53;;;9.50;99.90;;;;;;4934422;29;20215;-28
2021/01/12 01:33:26;;;;;;;6.07;4.50;;;9.50;99.90;;;;;;4935000;29;20232;-32
2021/01/12 01:35:56;;;;;;;4.70;4.28;;;9.50;99.90;;;;;;4934968;29;20739;-29
2021/01/12 01:38:26;;;;;;;4.93;4.50;;;9.40;99.90;;;;;;4934053;29;20256;-34
2021/01/12 01:40:59;;;;;;;6.43;4.90;;;9.30;99.90;;;;;;4934325;29;20284;-32
2021/01/12 01:43:29;;;;;;;4.78;4.38;;;9.20;99.90;;;;;;4934917;29;20202;-33
2021/01/12 01:46:00;;;;;;;5.15;4.57;;;9.20;99.90;;;;;;4934277;29;20221;-32
2021/01/12 01:48:31;;;;;;;5.00;4.60;;;9.00;99.90;;;;;;4934653;29;20658;-31
2021/01/12 01:51:03;;;;;;;5.53;5.03;;;8.90;99.90;;;;;;4934560;29;20280;-32
2021/01/12 01:53:35;;;;;;;5.75;5.25;;;8.80;99.90;;;;;;4934320;29;22082;-34
2021/01/12 01:56:07;;;;;;;6.30;5.72;;;8.70;99.90;;;;;;4934208;29;20583;-29
2021/01/12 01:58:40;;;;;;;5.40;4.88;;;8.80;99.90;;;;;;4934833;29;20227;-33
2021/01/12 02:01:12;;;;;;;7.68;6.28;;;8.80;99.90;;;;;;4933862;29;20210;-31
2021/01/12 02:03:49;;;;;;;8.90;7.95;;;8.90;99.90;;;;;;4934535;29;20205;-34
2021/01/12 02:06:23;;;;;;;7.07;6.38;;;8.90;99.90;;;;;;4934442;29;20209;-31
2021/01/12 02:09:01;;;;;;;7.25;6.55;;;8.90;99.90;;;;;;4934603;29;20203;-35
2021/01/12 02:11:36;;;;;;;10.10;6.45;;;8.90;99.90;;;;;;4933893;29;20222;-31
2021/01/12 02:14:09;;;;;;;7.50;6.72;;;8.90;99.90;;;;;;4934600;29;20202;-33
2021/01/12 02:16:41;;;;;;;6.35;5.78;;;8.80;99.90;;;;;;4934193;29;20351;-34
2021/01/12 02:19:15;;;;;;;8.40;6.20;;;8.70;99.90;;;;;;4934269;29;20213;-35
2021/01/12 02:21:48;;;;;;;7.32;6.53;;;8.70;99.90;;;;;;4934145;29;20250;-33
2021/01/12 02:24:20;;;;;;;6.85;5.97;;;8.70;99.90;;;;;;4934383;29;20194;-29
2021/01/12 02:26:50;;;;;;;6.82;6.13;;;8.60;99.90;;;;;;4933777;29;20194;-28
2021/01/12 02:29:20;;;;;;;6.55;5.97;;;8.60;99.90;;;;;;4933371;29;20206;-31
2021/01/12 02:31:51;;;;;;;8.93;7.22;;;8.60;99.90;;;;;;4933986;29;20230;-30
2021/01/12 02:34:26;;;;;;;7.45;6.10;;;8.60;99.90;;;;;;4933865;29;20277;-30
2021/01/12 02:36:57;;;;;;;7.25;6.55;;;8.60;99.90;;;;;;4933705;29;20245;-30
2021/01/12 02:39:28;;;;;;;7.85;6.35;;;8.60;99.90;;;;;;4933566;29;20681;-28
2021/01/12 02:41:58;;;;;;;9.60;6.28;;;8.50;99.90;;;;;;4933493;29;20226;-28
2021/01/12 02:44:29;;;;;;;8.57;6.90;;;8.50;99.90;;;;;;4933266;29;20847;-34
2021/01/12 02:47:00;;;;;;;8.00;7.20;;;8.50;99.90;;;;;;4933619;29;20675;-33
2021/01/12 02:49:30;;;;;;;9.10;8.20;;;8.50;99.90;;;;;;4932583;29;20199;-27
2021/01/12 02:52:00;;;;;;;8.65;7.80;;;8.50;99.90;;;;;;4933488;29;20233;-30
2021/01/12 02:54:32;;;;;;;8.52;7.72;;;8.50;99.90;;;;;;4933451;29;20242;-28
2021/01/12 02:57:02;;;;;;;8.55;7.68;;;8.50;99.90;;;;;;4933032;29;20194;-31
2021/01/12 02:59:32;;;;;;;11.05;8.18;;;8.50;99.90;;;;;;4932969;29;20214;-32
2021/01/12 03:02:03;;;;;;;12.13;9.70;;;8.50;99.90;;;;;;4933336;29;20766;-33
2021/01/12 03:04:33;;;;;;;11.02;9.75;;;8.60;99.90;;;;;;4933219;29;20508;-31
2021/01/12 03:07:03;;;;;;;10.60;9.48;;;8.60;99.90;;;;;;4933050;29;20213;-31
2021/01/12 03:09:35;;;;;;;10.20;9.18;;;8.70;99.90;;;;;;4933169;29;20194;-30
2021/01/12 03:12:05;;;;;;;8.52;7.72;;;8.60;99.90;;;;;;4932806;29;20229;-31
2021/01/12 03:14:36;;;;;;;8.65;6.65;;;8.60;99.90;;;;;;4932567;29;20241;-32
2021/01/12 03:17:09;;;;;;;6.75;5.85;;;8.60;99.90;;;;;;4932919;29;20198;-28
2021/01/12 03:19:39;;;;;;;7.57;6.80;;;8.60;99.90;;;;;;4933042;29;20625;-30
2021/01/12 03:22:10;;;;;;;6.60;5.60;;;8.50;99.90;;;;;;4933326;29;20210;-32
2021/01/12 03:24:41;;;;;;;7.22;6.30;;;8.40;99.90;;;;;;4932813;29;20195;-28
2021/01/12 03:27:11;;;;;;;6.53;5.93;;;8.40;99.90;;;;;;4932285;29;20206;-32
2021/01/12 03:29:41;;;;;;;7.75;6.90;;;8.30;99.90;;;;;;4932358;29;20210;-31
2021/01/12 03:32:11;;;;;;;6.95;6.25;;;8.30;99.90;;;;;;4932796;29;20302;-36
2021/01/12 03:34:42;;;;;;;28.63;10.32;;;8.20;99.90;;;;;;4932553;29;20296;-34
2021/01/12 03:37:12;;;;;;;6.43;5.82;;;8.30;99.90;;;;;;4932547;29;20206;-30
2021/01/12 03:39:43;;;;;;;7.25;6.50;;;8.30;99.90;;;;;;4932750;29;20303;-30
2021/01/12 03:42:13;;;;;;;7.15;6.45;;;8.30;99.90;;;;;;4932431;29;20238;-32
2021/01/12 03:44:44;;;;;;;6.70;6.00;;;8.20;99.90;;;;;;4932366;29;20206;-29
2021/01/12 03:47:14;;;;;;;6.30;5.70;;;8.10;99.90;;;;;;4932530;29;20198;-31
2021/01/12 03:49:45;;;;;;;11.30;6.68;;;8.10;99.90;;;;;;4932844;29;20221;-30
2021/01/12 03:52:16;;;;;;;6.40;5.80;;;8.10;99.90;;;;;;4932407;29;20229;-33
2021/01/12 03:54:47;;;;;;;7.07;6.03;;;8.10;99.90;;;;;;4932607;29;20237;-29
2021/01/12 03:57:17;;;;;;;7.03;6.32;;;8.10;99.90;;;;;;4939208;29;20615;-32
2021/01/12 03:59:47;;;;;;;7.03;6.32;;;8.10;99.90;;;;;;4951380;29;20209;-32
2021/01/12 04:02:17;;;;;;;6.55;5.90;;;8.00;99.90;;;;;;4951187;29;20205;-30
2021/01/12 04:04:48;;;;;;;8.20;6.78;;;8.10;99.90;;;;;;4951839;29;20197;-34
2021/01/12 04:07:18;;;;;;;9.55;6.90;;;8.10;99.90;;;;;;4951492;29;20648;-34
2021/01/12 04:09:51;;;;;;;7.30;6.30;;;8.00;99.90;;;;;;4951813;29;20252;-30
2021/01/12 04:12:21;;;;;;;7.30;6.57;;;8.10;99.90;;;;;;4951273;29;20311;-30
2021/01/12 04:14:51;;;;;;;7.45;6.75;;;8.00;99.90;;;;;;4951569;29;20212;-33
2021/01/12 04:17:21;;;;;;;8.85;7.63;;;8.10;99.90;;;;;;4951469;29;20307;-31
2021/01/12 04:19:51;;;;;;;8.25;7.55;;;8.10;99.90;;;;;;4951638;29;20281;-30
2021/01/12 04:22:21;;;;;;;7.22;6.53;;;8.20;99.90;;;;;;4951368;29;20231;-32
2021/01/12 04:24:55;;;;;;;10.20;6.65;;;8.20;99.90;;;;;;4951561;29;20212;-28
2021/01/12 04:27:25;;;;;;;8.13;7.32;;;8.20;99.90;;;;;;4951235;29;20201;-34
2021/01/12 04:29:55;;;;;;;7.40;6.70;;;8.20;99.90;;;;;;4950987;29;20213;-32
2021/01/12 04:32:25;;;;;;;8.38;6.63;;;8.20;99.90;;;;;;4951383;29;20225;-30
2021/01/12 04:34:55;;;;;;;8.80;7.93;;;8.10;99.90;;;;;;4951378;29;20210;-33
2021/01/12 04:37:26;;;;;;;9.48;7.60;;;8.10;99.90;;;;;;4951115;29;20284;-28
2021/01/12 04:39:57;;;;;;;9.52;8.52;;;8.10;99.90;;;;;;4951128;29;20213;-33
2021/01/12 04:42:32;;;;;;;8.90;7.97;;;8.20;99.90;;;;;;4950667;29;20593;-35
2021/01/12 04:45:03;;;;;;;8.55;7.75;;;8.10;99.90;;;;;;4950605;29;20196;-33
2021/01/12 04:47:33;;;;;;;8.82;7.95;;;8.20;99.90;;;;;;4936597;29;20205;-31
2021/01/12 04:50:04;;;;;;;8.60;7.80;;;8.20;99.90;;;;;;4932298;29;20198;-31
2021/01/12 04:52:45;;;;;;;8.75;7.55;;;8.20;99.90;;;;;;4931975;29;20688;-32
2021/01/12 04:55:17;;;;;;;8.35;7.55;;;8.20;99.90;;;;;;4931916;29;20234;-33
2021/01/12 04:57:48;;;;;;;8.68;7.85;;;8.30;99.90;;;;;;4931937;29;20206;-31
2021/01/12 05:00:23;;;;;;;8.60;7.75;;;8.30;99.90;;;;;;4931629;29;20257;-31
2021/01/12 05:03:01;;;;;;;7.57;6.65;;;8.30;99.90;;;;;;4932266;29;20567;-31
2021/01/12 05:05:38;;;;;;;9.02;8.07;;;8.30;99.90;;;;;;4932191;29;20268;-31
2021/01/12 05:08:09;;;;;;;7.80;7.07;;;8.40;99.90;;;;;;4932078;29;20210;-33
2021/01/12 05:10:41;;;;;;;7.60;6.80;;;8.40;99.90;;;;;;4931924;29;20647;-35
2021/01/12 05:13:12;;;;;;;9.40;7.50;;;8.40;99.90;;;;;;4932143;29;20285;-32
2021/01/12 05:15:48;;;;;;;8.73;7.93;;;8.40;99.90;;;;;;4935065;29;20237;-35
2021/01/12 05:18:21;;;;;;;8.85;7.95;;;8.40;99.90;;;;;;4934805;29;20200;-31
2021/01/12 05:20:52;;;;;;;9.18;7.93;;;8.40;99.90;;;;;;4935408;29;20194;-33
2021/01/12 05:23:25;;;;;;;8.90;7.90;;;8.40;99.90;;;;;;4934991;29;20201;-31
2021/01/12 05:26:00;;;;;;;8.93;8.05;;;8.30;99.90;;;;;;4934909;29;20191;-32
2021/01/12 05:28:31;;;;;;;8.48;7.78;;;8.20;99.90;;;;;;4934862;29;20204;-30
2021/01/12 05:31:06;;;;;;;8.05;7.25;;;8.20;99.90;;;;;;4934461;29;20205;-30
2021/01/12 05:33:38;;;;;;;8.25;7.55;;;8.30;99.90;;;;;;4935284;29;20190;-29
2021/01/12 05:36:09;;;;;;;8.88;7.65;;;8.20;99.90;;;;;;4943684;29;20206;-32
2021/01/12 05:38:39;;;;;;;6.90;6.30;;;8.20;99.90;;;;;;4954048;29;20264;-35
2021/01/12 05:41:14;;;;;;;6.45;5.85;;;8.20;99.90;;;;;;4953497;29;20237;-30
2021/01/12 05:43:45;;;;;;;6.63;6.03;;;8.20;99.90;;;;;;4937176;29;20240;-34
2021/01/12 05:46:16;;;;;;;6.80;6.20;;;8.20;99.90;;;;;;4953450;29;20213;-33
2021/01/12 05:48:47;;;;;;;7.80;7.03;;;8.20;99.90;;;;;;4954098;29;20241;-30
2021/01/12 05:51:18;;;;;;;6.43;5.82;;;8.20;99.90;;;;;;4953723;29;20233;-31
2021/01/12 05:54:31;;;;;;;7.18;6.25;;;8.20;99.90;;;;;;4953914;29;20237;-33
2021/01/12 05:57:04;;;;;;;6.80;6.20;;;8.30;99.90;;;;;;4927351;29;20201;-32
2021/01/12 05:59:35;;;;;;;6.30;5.70;;;8.30;99.90;;;;;;4953353;29;20849;-33
2021/01/12 06:02:09;;;;;;;6.00;5.40;;;8.30;99.90;;;;;;4953811;29;20204;-31
2021/01/12 06:04:40;;;;;;;6.43;5.80;;;8.30;99.90;;;;;;4953710;29;20274;-32
2021/01/12 06:07:11;;;;;;;6.82;6.22;;;8.30;99.90;;;;;;4953995;29;20698;-33
2021/01/12 06:09:42;;;;;;;6.13;5.60;;;8.20;99.90;;;;;;4953632;29;20403;-31
2021/01/12 06:12:16;;;;;;;6.65;6.05;;;8.30;99.90;;;;;;4953010;29;20228;-30
2021/01/12 06:14:52;;;;;;;6.35;5.75;;;8.40;99.90;;;;;;4953117;29;20201;-35
2021/01/12 06:17:22;;;;;;;5.72;5.22;;;8.40;99.90;;;;;;4953408;29;20630;-33
2021/01/12 06:19:55;;;;;;;7.13;6.00;;;8.40;99.90;;;;;;4953704;29;20231;-31
2021/01/12 06:22:27;;;;;;;6.28;5.68;;;8.40;99.90;;;;;;4953313;29;20297;-34
2021/01/12 06:25:03;;;;;;;5.43;4.93;;;8.30;99.90;;;;;;4953175;28;20221;-33
2021/01/12 06:27:35;;;;;;;6.07;5.47;;;8.30;99.90;;;;;;4953058;29;20278;-36
2021/01/12 06:30:10;;;;;;;6.55;5.03;;;8.30;99.90;;;;;;4953126;29;20190;-36
2021/01/12 06:32:40;;;;;;;6.38;5.63;;;8.30;99.90;;;;;;4953098;29;20228;-29
2021/01/12 06:35:11;;;;;;;4.53;4.13;;;8.30;99.90;;;;;;4953262;29;20209;-29
2021/01/12 06:37:43;;;;;;;5.32;4.78;;;8.30;99.90;;;;;;4953195;29;20197;-31
2021/01/12 06:40:14;;;;;;;6.03;4.75;;;8.40;99.90;;;;;;4952820;29;20190;-28
2021/01/12 06:42:45;;;;;;;6.30;5.35;;;8.30;99.90;;;;;;4952841;29;20202;-28
2021/01/12 06:45:16;;;;;;;5.72;5.13;;;8.30;99.90;;;;;;4952583;29;20212;-28
2021/01/12 06:47:48;;;;;;;6.30;5.80;;;8.30;99.90;;;;;;4952894;29;20193;-33
2021/01/12 06:50:18;;;;;;;6.05;5.45;;;8.30;99.90;;;;;;4952844;29;20193;-30
2021/01/12 06:52:49;;;;;;;6.85;5.85;;;8.30;99.90;;;;;;4952821;29;20233;-30
2021/01/12 06:55:20;;;;;;;6.70;6.00;;;8.30;99.90;;;;;;4952865;29;20705;-29
2021/01/12 06:57:54;;;;;;;6.40;5.80;;;8.40;99.90;;;;;;4952479;29;20194;-31
2021/01/12 07:00:25;;;;;;;6.55;5.90;;;8.40;99.90;;;;;;4952228;29;20194;-33
2021/01/12 07:02:59;;;;;;;6.57;5.97;;;8.40;99.90;;;;;;4952741;29;20197;-34
2021/01/12 07:05:39;;;;;;;6.40;5.80;;;8.30;99.90;;;;;;4952724;29;20197;-32
2021/01/12 07:08:09;;;;;;;5.72;5.20;;;8.30;99.90;;;;;;4952360;29;20193;-32
2021/01/12 07:10:44;;;;;;;6.63;5.97;;;8.40;99.90;;;;;;4952352;29;20197;-32
2021/01/12 07:13:15;;;;;;;6.47;5.78;;;8.40;99.90;;;;;;4951989;29;20303;-30
2021/01/12 07:15:46;;;;;;;6.78;6.18;;;8.40;99.90;;;;;;4933955;29;20210;-32
2021/01/12 07:18:31;;;;;;;5.97;5.43;;;8.40;99.90;;;;;;4932936;29;20213;-31
2021/01/12 07:21:01;;;;;;;6.72;6.13;;;8.40;99.90;;;;;;4932940;29;20220;-29
2021/01/12 07:23:39;;;;;;;7.53;5.95;;;8.40;99.90;;;;;;4933164;29;20233;-33
2021/01/12 07:26:10;;;;;;;6.35;5.70;;;8.40;99.90;;;;;;4932461;29;20814;-28
2021/01/12 07:28:47;;;;;;;5.88;5.32;;;8.50;99.90;;;;;;4933321;29;20198;-32
2021/01/12 07:31:27;;;;;;;7.68;6.00;;;8.40;99.90;;;;;;4932258;29;20189;-29
2021/01/12 07:33:57;;;;;;;6.32;5.72;;;8.50;99.90;;;;;;4932972;29;20276;-31
2021/01/12 07:36:28;;;;;;;6.93;6.22;;;8.50;99.90;;;;;;4932318;29;20223;-28
2021/01/12 07:39:02;;;;;;;6.85;6.25;;;8.40;99.90;;;;;;4933250;29;20261;-29
2021/01/12 07:41:32;;;;;;;7.38;6.68;;;8.50;99.90;;;;;;4932507;29;20325;-33
2021/01/12 07:44:07;;;;;;;7.03;6.32;;;8.40;99.90;;;;;;4932889;29;20344;-30
2021/01/12 07:46:37;;;;;;;7.30;6.53;;;8.50;99.90;;;;;;4932750;29;20198;-30
2021/01/12 07:49:08;;;;;;;7.90;7.15;;;8.40;99.90;;;;;;4933168;29;20543;-33
2021/01/12 07:51:38;;;;;;;7.18;6.50;;;8.40;99.90;;;;;;4933019;29;20222;-31
2021/01/12 07:54:08;;;;;;;7.80;6.97;;;8.40;99.90;;;;;;4932619;29;20237;-33
2021/01/12 07:56:39;;;;;;;6.75;6.15;;;8.50;99.90;;;;;;4933270;29;20535;-31
2021/01/12 07:59:11;;;;;;;6.97;6.32;;;8.50;99.90;;;;;;4932420;29;20281;-35
2021/01/12 08:01:42;;;;;;;6.97;6.20;;;8.50;99.90;;;;;;4932829;29;20202;-32
2021/01/12 08:04:14;;;;;;;5.65;5.15;;;8.50;99.90;;;;;;4943228;29;20206;-28
2021/01/12 08:06:46;;;;;;;6.13;5.53;;;8.60;99.90;;;;;;4951879;29;20228;-29
2021/01/12 08:09:23;;;;;;;7.55;5.88;;;8.60;99.90;;;;;;4951610;29;20550;-31
2021/01/12 08:12:02;;;;;;;5.95;5.45;;;8.60;99.90;;;;;;4951327;29;20228;-31
2021/01/12 08:14:34;;;;;;;6.78;5.82;;;8.60;99.90;;;;;;4950977;29;20312;-30
2021/01/12 08:17:05;;;;;;;7.47;5.75;;;8.70;99.90;;;;;;4951814;29;20634;-34
2021/01/12 08:19:38;;;;;;;7.35;5.95;;;8.60;99.90;;;;;;4951607;29;20288;-30
2021/01/12 08:22:10;;;;;;;4.88;4.47;;;8.60;99.90;;;;;;4951519;29;20248;-31
2021/01/12 08:24:40;;;;;;;5.82;5.22;;;8.60;99.90;;;;;;4951446;29;20347;-33
2021/01/12 08:27:10;;;;;;;8.82;5.18;;;8.70;99.90;;;;;;4951270;29;20305;-31
2021/01/12 08:29:42;;;;;;;5.20;4.70;;;8.70;99.90;;;;;;4950837;29;20300;-32
2021/01/12 08:32:15;;;;;;;5.60;5.10;;;8.80;99.90;;;;;;4951469;29;20260;-34
2021/01/12 08:34:57;;;;;;;5.38;4.88;;;8.80;99.90;;;;;;4951558;29;20229;-29
2021/01/12 08:37:29;;;;;;;5.30;4.80;;;8.80;99.90;;;;;;4951195;29;20288;-34
2021/01/12 08:40:00;;;;;;;5.40;4.90;;;8.90;99.90;;;;;;4951450;29;20230;-30
2021/01/12 08:42:32;;;;;;;5.15;4.65;;;8.90;99.90;;;;;;4951064;29;20221;-32
2021/01/12 08:45:04;;;;;;;4.60;4.20;;;9.00;99.90;;;;;;4950885;29;20202;-31
2021/01/12 08:47:34;;;;;;;5.90;4.20;;;9.00;99.90;;;;;;4952996;28;20194;-33
2021/01/12 08:50:21;;;;;;;6.05;4.65;;;9.10;99.90;;;;;;4955024;29;20199;-29
2021/01/12 08:52:51;;;;;;;5.05;4.35;;;9.10;99.90;;;;;;4948643;29;20901;-31
2021/01/12 08:55:23;;;;;;;4.47;4.07;;;9.10;99.90;;;;;;4935721;29;20249;-30
2021/01/12 08:57:57;;;;;;;4.40;4.00;;;9.20;99.90;;;;;;4935597;29;20201;-32
2021/01/12 09:00:33;;;;;;;4.30;3.97;;;9.20;99.90;;;;;;4935137;29;20194;-33
2021/01/12 09:03:04;;;;;;;4.75;4.30;;;9.20;99.90;;;;;;4935603;29;20202;-31
2021/01/12 09:05:40;;;;;;;3.88;3.58;;;9.20;99.90;;;;;;4935490;29;20230;-37
2021/01/12 09:08:12;;;;;;;4.80;4.30;;;9.20;99.90;;;;;;4935414;29;20194;-33
2021/01/12 09:10:42;;;;;;;4.95;4.50;;;9.20;99.90;;;;;;4935472;29;20198;-31
2021/01/12 09:13:12;;;;;;;4.22;3.85;;;9.20;99.90;;;;;;4935174;29;20301;-30
2021/01/12 09:15:51;;;;;;;5.25;4.72;;;9.20;99.90;;;;;;4934717;29;20205;-33
2021/01/12 09:18:23;;;;;;;5.38;4.40;;;9.20;99.90;;;;;;4934944;29;20244;-35
2021/01/12 09:20:57;;;;;;;4.38;4.07;;;9.30;99.90;;;;;;4935032;29;20198;-30
2021/01/12 09:23:28;;;;;;;4.20;3.90;;;9.40;99.90;;;;;;4935195;29;20646;-29
2021/01/12 09:26:01;;;;;;;4.35;3.95;;;9.40;99.90;;;;;;4934828;29;20197;-31
2021/01/12 09:28:32;;;;;;;3.65;3.35;;;9.50;99.90;;;;;;4935170;29;20204;-32
2021/01/12 09:31:07;;;;;;;6.03;3.72;;;9.40;99.90;;;;;;4934548;29;20204;-34
2021/01/12 09:33:39;;;;;;;3.13;2.83;;;9.50;99.90;;;;;;4935046;29;20290;-30
2021/01/12 09:36:11;;;;;;;3.83;3.13;;;9.50;99.90;;;;;;4935095;29;20779;-30
2021/01/12 09:38:43;;;;;;;3.60;3.30;;;9.50;99.90;;;;;;4934783;29;20200;-32
2021/01/12 09:41:14;;;;;;;3.88;3.28;;;9.50;99.90;;;;;;4934714;29;20251;-34
2021/01/12 09:43:45;;;;;;;2.92;2.63;;;9.60;99.90;;;;;;4934933;29;20208;-29
2021/01/12 09:46:17;;;;;;;3.80;3.40;;;9.60;99.90;;;;;;4934039;29;20624;-28
2021/01/12 09:48:47;;;;;;;3.10;2.80;;;9.70;99.90;;;;;;4934721;29;20251;-31
2021/01/12 09:51:18;;;;;;;3.15;2.58;;;9.80;99.90;;;;;;4934742;29;20284;-32
2021/01/12 09:53:49;;;;;;;2.90;2.70;;;9.80;99.90;;;;;;4934583;29;20725;-34
2021/01/12 09:56:20;;;;;;;2.65;2.45;;;9.80;99.90;;;;;;4934139;29;20202;-33
2021/01/12 09:58:54;;;;;;;2.92;2.65;;;9.80;99.90;;;;;;4933991;29;20190;-31
2021/01/12 10:01:25;;;;;;;3.70;3.00;;;9.80;99.90;;;;;;4933923;29;20190;-34
2021/01/12 10:03:55;;;;;;;2.75;2.42;;;9.90;99.90;;;;;;4934609;29;20195;-32
2021/01/12 10:06:28;;;;;;;3.30;3.00;;;9.90;99.90;;;;;;4934324;29;20207;-36
2021/01/12 10:08:58;;;;;;;2.75;2.53;;;9.90;99.90;;;;;;4934466;29;20615;-34
2021/01/12 10:11:29;;;;;;;2.40;2.20;;;10.00;99.90;;;;;;4933956;29;20205;-28
2021/01/12 10:13:59;;;;;;;2.58;2.38;;;10.00;99.90;;;;;;4934347;29;20233;-30
2021/01/12 10:16:30;;;;;;;3.97;2.47;;;10.10;99.90;;;;;;4933654;29;20218;-33
2021/01/12 10:19:00;;;;;;;3.80;2.53;;;10.10;99.90;;;;;;4934274;29;20202;-32
2021/01/12 10:21:30;;;;;;;2.65;2.13;;;10.10;99.90;;;;;;4933955;29;20219;-31
2021/01/12 10:24:00;;;;;;;2.42;2.22;;;10.10;99.90;;;;;;4934228;29;20215;-31
2021/01/12 10:26:32;;;;;;;3.63;2.50;;;10.20;99.90;;;;;;4933686;29;20214;-33
2021/01/12 10:29:02;;;;;;;2.10;1.92;;;10.20;99.90;;;;;;4934258;29;20192;-36
2021/01/12 10:31:33;;;;;;;1.13;1.02;;;10.50;99.90;;;;;;4937368;29;20202;-32
2021/01/12 10:34:04;;;;;;;1.75;1.10;;;10.80;99.90;;;;;;4953360;29;20276;-31
2021/01/12 10:36:34;;;;;;;0.88;0.80;;;11.00;99.90;;;;;;4952888;29;20302;-31
2021/01/12 10:39:04;;;;;;;0.80;0.80;;;11.20;99.90;;;;;;4953124;29;20211;-33
2021/01/12 10:41:40;;;;;;;0.50;0.50;;;11.30;99.90;;;;;;4952804;29;20227;-33
2021/01/12 10:44:10;;;;;;;0.82;0.65;;;11.50;99.90;;;;;;4952689;29;20274;-30
2021/01/12 10:46:41;;;;;;;0.68;0.68;;;11.60;99.90;;;;;;4952896;29;20617;-34
2021/01/12 10:49:11;;;;;;;0.68;0.68;;;11.60;99.90;;;;;;4952676;29;20307;-28
2021/01/12 10:51:42;;;;;;;0.77;0.77;;;11.70;99.90;;;;;;4952654;29;20282;-30
2021/01/12 10:54:12;;;;;;;1.77;0.63;;;11.70;99.90;;;;;;4952280;29;20546;-32
2021/01/12 10:56:42;;;;;;;0.47;0.40;;;11.70;99.90;;;;;;4952572;29;20440;-30
2021/01/12 10:59:30;;;;;;;1.42;0.50;;;11.80;99.90;;;;;;4952006;29;20506;-29
2021/01/12 11:02:02;;;;;;;1.07;0.60;;;11.90;99.90;;;;;;4952741;29;20616;-34
2021/01/12 11:04:32;;;;;;;0.40;0.40;;;11.90;99.90;;;;;;4952427;29;20522;-28
2021/01/12 11:07:20;;;;;;;0.90;0.40;;;11.90;99.90;;;;;;4952474;29;20452;-28
2021/01/12 11:10:08;;;;;;;0.63;0.43;;;12.00;99.90;;;;;;4952314;28;21128;-33
2021/01/12 11:12:38;;;;;;;0.40;0.30;;;12.00;99.90;;;;;;4951837;29;20502;-30
2021/01/12 11:15:09;;;;;;;0.40;0.40;;;12.00;99.90;;;;;;4951896;29;20792;-31
2021/01/12 11:17:41;;;;;;;0.50;0.40;;;12.00;99.90;;;;;;4952676;29;20967;-31
2021/01/12 11:20:13;;;;;;;0.77;0.50;;;12.00;99.90;;;;;;4952061;29;20431;-35
2021/01/12 11:22:44;;;;;;;0.38;0.30;;;12.00;99.90;;;;;;4937346;29;20444;-30
2021/01/12 11:25:15;;;;;;;0.50;0.50;;;12.00;99.90;;;;;;4933155;29;20667;-32
2021/01/12 11:27:45;;;;;;;0.90;0.43;;;12.00;99.90;;;;;;4932852;29;20901;-31
2021/01/12 11:30:16;;;;;;;1.33;0.40;;;12.00;99.90;;;;;;4932383;29;20255;-33
2021/01/12 11:32:48;;;;;;;0.80;0.53;;;12.10;99.90;;;;;;4932825;29;20579;-34
2021/01/12 11:35:19;;;;;;;0.83;0.40;;;12.10;99.90;;;;;;4932718;29;20445;-32
2021/01/12 11:37:49;;;;;;;1.00;0.50;;;12.10;99.90;;;;;;4933092;29;21086;-34
2021/01/12 11:40:22;;;;;;;0.40;0.40;;;12.10;99.90;;;;;;4932738;29;20967;-30
2021/01/12 11:42:53;;;;;;;0.30;0.30;;;12.10;99.90;;;;;;4932463;29;20922;-32
2021/01/12 11:45:23;;;;;;;0.60;0.40;;;12.10;99.90;;;;;;4932064;29;20459;-33
2021/01/12 11:47:54;;;;;;;0.53;0.50;;;12.10;99.90;;;;;;4932657;29;20933;-33
2021/01/12 11:50:25;;;;;;;0.73;0.43;;;12.10;99.90;;;;;;4932637;29;20447;-31
2021/01/12 11:52:58;;;;;;;1.13;0.40;;;12.10;99.90;;;;;;4932643;29;20491;-33
2021/01/12 11:55:28;;;;;;;0.40;0.30;;;12.00;99.90;;;;;;4932414;29;20488;-33
2021/01/12 11:57:58;;;;;;;0.60;0.50;;;12.10;99.90;;;;;;4932407;29;20431;-31
2021/01/12 12:00:29;;;;;;;0.40;0.30;;;12.10;99.90;;;;;;4931804;29;20458;-36
2021/01/12 12:03:00;;;;;;;0.50;0.37;;;12.10;99.90;;;;;;4933003;29;20957;-29
2021/01/12 12:05:30;;;;;;;0.70;0.30;;;12.10;99.90;;;;;;4932498;29;20437;-31
2021/01/12 12:08:00;;;;;;;3.23;0.90;;;12.20;99.90;;;;;;4932689;29;20520;-33
2021/01/12 12:10:30;;;;;;;0.53;0.50;;;12.20;99.90;;;;;;4935561;29;20886;-35
2021/01/12 12:13:01;;;;;;;0.82;0.50;;;12.20;99.90;;;;;;4951639;29;20564;-32
2021/01/12 12:15:31;;;;;;;0.50;0.50;;;12.30;99.90;;;;;;4951551;29;20212;-31
2021/01/12 12:18:03;;;;;;;0.50;0.50;;;12.30;99.90;;;;;;4951845;29;20503;-33
2021/01/12 12:20:34;;;;;;;0.57;0.57;;;12.30;99.90;;;;;;4951470;29;20196;-31
2021/01/12 12:23:04;;;;;;;1.23;0.50;;;12.30;99.90;;;;;;4954284;28;20481;-28
2021/01/12 12:25:34;;;;;;;0.60;0.53;;;12.30;99.90;;;;;;4955253;29;20506;-32
2021/01/12 12:28:05;;;;;;;0.70;0.50;;;12.30;99.90;;;;;;4955261;29;20488;-28
2021/01/12 12:30:35;;;;;;;0.57;0.57;;;12.30;99.90;;;;;;4955125;29;20514;-30
2021/01/12 12:33:07;;;;;;;1.70;0.60;;;12.30;99.90;;;;;;4955642;29;20491;-33
2021/01/12 12:35:37;;;;;;;0.50;0.50;;;12.30;99.90;;;;;;4955247;29;20942;-32
2021/01/12 12:38:07;;;;;;;1.05;0.50;;;12.30;99.90;;;;;;4955234;29;20269;-31
2021/01/12 12:40:37;;;;;;;0.53;0.50;;;12.30;99.90;;;;;;4954975;29;20239;-28
2021/01/12 12:43:07;;;;;;;0.87;0.50;;;12.20;99.90;;;;;;4954677;29;20498;-34
2021/01/12 12:45:39;;;;;;;0.60;0.57;;;12.30;99.90;;;;;;4954479;29;20454;-33
2021/01/12 12:48:11;;;;;;;1.27;0.47;;;12.30;99.90;;;;;;4954802;29;20570;-30
2021/01/12 12:50:41;;;;;;;0.65;0.40;;;12.30;99.90;;;;;;4954738;29;20442;-33
2021/01/12 12:53:12;;;;;;;0.40;0.40;;;12.30;99.90;;;;;;4954551;29;20243;-34
2021/01/12 12:55:42;;;;;;;2.15;0.40;;;12.30;99.90;;;;;;4954858;29;20472;-31
2021/01/12 12:58:13;;;;;;;0.73;0.40;;;12.30;99.90;;;;;;4954209;29;20600;-32
2021/01/12 13:00:44;;;;;;;0.40;0.38;;;12.30;99.90;;;;;;4954015;29;20261;-31
2021/01/12 13:03:16;;;;;;;0.50;0.50;;;12.30;99.90;;;;;;4954475;29;20235;-35
2021/01/12 13:05:47;;;;;;;0.40;0.30;;;12.30;99.90;;;;;;4954667;29;20436;-29
2021/01/12 13:08:18;;;;;;;0.30;0.30;;;12.30;99.90;;;;;;4954863;29;20448;-32
2021/01/12 13:10:49;;;;;;;0.50;0.50;;;12.30;99.90;;;;;;4954613;29;20440;-33
2021/01/12 13:13:19;;;;;;;0.67;0.57;;;12.30;99.90;;;;;;4954409;29;20549;-30
2021/01/12 13:15:50;;;;;;;0.40;0.30;;;12.30;99.90;;;;;;4953778;29;20439;-28
2021/01/12 13:18:24;;;;;;;0.60;0.50;;;12.30;99.90;;;;;;4954544;29;20206;-28